Time;durP1;ratioP1;P1;durP2;ratioP2;P2;SDS_P1;SDS_P2;PMS_P1;PMS_P2;Temp;Humidity;BMP_temperature;BMP_pressure;BME280_temperature;BME280_humidity;BME280_pressure;Samples;Min_cycle;Max_cycle;Signal;HPM_P1;HPM_P2
2020/12/22 00:00:20;;;;;;;13.20;8.45;;;-1.20;77.70;;;;;;5035322;28;20025;-76
2020/12/22 00:02:47;;;;;;;14.40;8.68;;;-1.20;76.80;;;;;;5035342;28;20025;-76
2020/12/22 00:05:13;;;;;;;14.20;9.05;;;-1.20;77.40;;;;;;5035925;28;20028;-76
2020/12/22 00:07:40;;;;;;;12.90;8.65;;;-1.20;77.40;;;;;;5035192;28;20183;-76
2020/12/22 00:10:08;;;;;;;12.68;8.45;;;-1.30;77.20;;;;;;5035107;28;20044;-76
2020/12/22 00:12:40;;;;;;;14.10;9.00;;;-1.20;77.60;;;;;;5035279;28;20109;-76
2020/12/22 00:15:07;;;;;;;15.70;9.23;;;-1.30;76.90;;;;;;5035074;28;20028;-76
2020/12/22 00:17:33;;;;;;;18.00;9.68;;;-1.30;77.20;;;;;;5035289;28;20052;-76
2020/12/22 00:19:59;;;;;;;16.17;9.75;;;-1.30;77.10;;;;;;5035063;28;20061;-76
2020/12/22 00:22:25;;;;;;;17.52;10.48;;;-1.30;77.10;;;;;;5033716;28;20030;-76
2020/12/22 00:24:50;;;;;;;16.90;9.77;;;-1.30;77.20;;;;;;5034977;28;20053;-76
2020/12/22 00:27:16;;;;;;;20.20;9.80;;;-1.40;77.00;;;;;;5034827;28;20388;-76
2020/12/22 00:29:42;;;;;;;16.10;9.48;;;-1.30;77.50;;;;;;5035110;28;20021;-76
2020/12/22 00:32:08;;;;;;;18.27;10.50;;;-1.30;77.60;;;;;;5034737;28;20075;-76
2020/12/22 00:34:34;;;;;;;19.80;10.05;;;-1.30;77.60;;;;;;5035044;28;20099;-76
2020/12/22 00:37:00;;;;;;;20.20;11.25;;;-1.30;77.70;;;;;;5033444;28;20105;-76
2020/12/22 00:39:26;;;;;;;19.58;10.63;;;-1.30;77.90;;;;;;5034607;28;20056;-76
2020/12/22 00:41:56;;;;;;;25.08;12.68;;;-1.30;78.30;;;;;;5035058;28;20026;-76
2020/12/22 00:44:23;;;;;;;27.93;13.73;;;-1.40;77.70;;;;;;5034571;28;20033;-76
2020/12/22 00:46:49;;;;;;;24.70;11.77;;;-1.30;78.00;;;;;;5033252;28;20035;-76
2020/12/22 00:49:14;;;;;;;22.67;12.15;;;-1.30;78.00;;;;;;5034036;28;20050;-76
2020/12/22 00:51:40;;;;;;;22.20;11.55;;;-1.30;77.70;;;;;;5033150;28;20030;-76
2020/12/22 00:54:06;;;;;;;22.48;12.07;;;-1.30;77.70;;;;;;5034506;28;20491;-76
2020/12/22 00:56:32;;;;;;;22.40;12.10;;;-1.30;77.50;;;;;;5033305;28;20034;-76
2020/12/22 00:58:57;;;;;;;20.17;10.80;;;-1.40;77.10;;;;;;5034064;28;20399;-76
2020/12/22 01:01:23;;;;;;;22.73;11.73;;;-1.40;77.90;;;;;;5034306;28;20038;-76
2020/12/22 01:03:49;;;;;;;25.58;13.43;;;-1.40;77.80;;;;;;5034192;28;20079;-76
2020/12/22 01:06:15;;;;;;;18.02;10.52;;;-1.40;77.90;;;;;;5034134;28;20049;-76
2020/12/22 01:08:42;;;;;;;21.75;11.90;;;-1.40;78.10;;;;;;5034004;28;20099;-77
2020/12/22 01:11:08;;;;;;;18.88;11.10;;;-1.30;77.70;;;;;;5043509;28;20025;-76
2020/12/22 01:13:34;;;;;;;20.45;11.82;;;-1.40;77.50;;;;;;5052757;28;20071;-76
2020/12/22 01:16:00;;;;;;;21.08;11.90;;;-1.40;77.70;;;;;;5053852;28;20021;-76
2020/12/22 01:18:25;;;;;;;22.90;12.43;;;-1.30;78.00;;;;;;5053762;28;20116;-76
2020/12/22 01:20:51;;;;;;;23.95;13.40;;;-1.40;77.80;;;;;;5053783;28;20031;-76
2020/12/22 01:23:17;;;;;;;22.77;12.82;;;-1.40;77.90;;;;;;5054048;28;20029;-76
2020/12/22 01:25:43;;;;;;;23.33;12.75;;;-1.40;78.40;;;;;;5053626;28;20328;-76
2020/12/22 01:28:09;;;;;;;22.48;12.20;;;-1.50;78.40;;;;;;5085968;28;20021;-76
2020/12/22 01:30:38;;;;;;;21.02;12.40;;;-1.40;78.30;;;;;;5052271;28;20032;-76
2020/12/22 01:33:05;;;;;;;26.50;13.33;;;-1.40;78.40;;;;;;5053801;28;20473;-76
2020/12/22 01:35:31;;;;;;;23.20;12.80;;;-1.50;78.30;;;;;;5052386;28;20046;-76
2020/12/22 01:37:57;;;;;;;22.15;13.00;;;-1.40;78.00;;;;;;5053407;28;20151;-76
2020/12/22 01:40:23;;;;;;;23.75;12.98;;;-1.50;78.20;;;;;;5052146;28;20485;-76
2020/12/22 01:42:49;;;;;;;24.85;14.00;;;-1.40;78.20;;;;;;5053605;28;20028;-76
2020/12/22 01:45:15;;;;;;;24.77;14.20;;;-1.40;78.30;;;;;;5052739;28;20444;-76
2020/12/22 01:47:46;;;;;;;25.80;14.35;;;-1.40;78.50;;;;;;5053546;28;20044;-76
2020/12/22 01:50:17;;;;;;;24.77;14.55;;;-1.40;78.50;;;;;;5048637;28;20030;-76
2020/12/22 01:52:44;;;;;;;;;;;-1.30;78.40;;;;;;5033086;28;20021;-76
2020/12/22 01:55:10;;;;;;;27.73;14.73;;;-1.40;78.30;;;;;;5033466;28;19909;-76
2020/12/22 01:57:35;;;;;;;25.52;14.68;;;-1.40;78.30;;;;;;5053437;28;20532;-76
2020/12/22 02:00:02;;;;;;;25.48;15.32;;;-1.50;78.20;;;;;;5053359;28;20025;-76
2020/12/22 02:02:28;;;;;;;26.30;15.60;;;-1.50;78.20;;;;;;5053356;28;20052;-76
2020/12/22 02:04:54;;;;;;;26.45;15.07;;;-1.50;78.40;;;;;;5052077;28;20029;-76
2020/12/22 02:07:21;;;;;;;29.27;16.05;;;-1.50;78.40;;;;;;5054238;28;20028;-76
2020/12/22 02:09:49;;;;;;;29.02;15.88;;;-1.50;78.70;;;;;;5053637;28;20025;-76
2020/12/22 02:12:18;;;;;;;32.45;17.00;;;-1.60;79.00;;;;;;5057279;28;20021;-76
2020/12/22 02:14:44;;;;;;;30.48;16.17;;;-1.50;78.90;;;;;;5057861;28;20021;-76
2020/12/22 02:17:10;;;;;;;32.20;16.77;;;-1.50;79.00;;;;;;5058028;28;20506;-76
2020/12/22 02:19:36;;;;;;;29.50;16.67;;;-1.50;79.20;;;;;;5057198;28;20043;-76
2020/12/22 02:22:04;;;;;;;29.33;16.98;;;-1.50;79.10;;;;;;5057118;28;20025;-76
2020/12/22 02:24:35;;;;;;;28.17;15.77;;;-1.50;79.20;;;;;;5057188;28;20021;-76
2020/12/22 02:27:02;;;;;;;29.80;17.73;;;-1.50;79.30;;;;;;5057556;28;20063;-76
2020/12/22 02:29:28;;;;;;;32.78;17.75;;;-1.40;79.40;;;;;;5057564;28;20025;-76
2020/12/22 02:31:54;;;;;;;32.40;17.33;;;-1.40;79.50;;;;;;5055939;28;20420;-76
2020/12/22 02:34:20;;;;;;;34.72;17.38;;;-1.40;79.40;;;;;;5055494;28;20141;-76
2020/12/22 02:36:46;;;;;;;37.00;18.50;;;-1.40;79.40;;;;;;5056774;28;20031;-76
2020/12/22 02:39:12;;;;;;;36.20;19.77;;;-1.40;79.00;;;;;;5056519;28;20111;-76
2020/12/22 02:41:38;;;;;;;34.25;18.80;;;-1.50;79.60;;;;;;5055835;28;20029;-76
2020/12/22 02:44:03;;;;;;;36.40;19.23;;;-1.50;80.40;;;;;;5055782;28;20025;-76
2020/12/22 02:46:29;;;;;;;31.80;16.85;;;-1.40;79.50;;;;;;5055401;28;20433;-76
2020/12/22 02:48:56;;;;;;;36.00;17.98;;;-1.40;79.50;;;;;;5054715;28;20128;-76
2020/12/22 02:51:22;;;;;;;34.08;17.83;;;-1.40;79.30;;;;;;5056912;28;20024;-76
2020/12/22 02:53:49;;;;;;;34.50;18.48;;;-1.30;79.40;;;;;;5055286;28;20025;-76
2020/12/22 02:56:14;;;;;;;36.60;18.50;;;-1.30;79.40;;;;;;5054997;28;20386;-76
2020/12/22 02:58:41;;;;;;;33.88;18.10;;;-1.40;79.20;;;;;;5038626;28;20033;-76
2020/12/22 03:01:07;;;;;;;46.50;21.02;;;-1.50;79.30;;;;;;5055143;28;20025;-76
2020/12/22 03:03:33;;;;;;;35.22;17.67;;;-1.50;80.20;;;;;;5056146;28;20036;-76
2020/12/22 03:05:58;;;;;;;40.17;19.45;;;-1.40;79.90;;;;;;5056271;28;20395;-77
2020/12/22 03:08:24;;;;;;;41.20;20.45;;;-1.40;80.10;;;;;;5056591;28;20112;-76
2020/12/22 03:10:50;;;;;;;40.50;20.25;;;-1.40;80.10;;;;;;5054743;28;20028;-76
2020/12/22 03:13:15;;;;;;;43.33;18.90;;;-1.40;80.10;;;;;;5056305;28;20775;-76
2020/12/22 03:15:41;;;;;;;41.03;20.02;;;-1.40;80.00;;;;;;5056200;28;20025;-76
2020/12/22 03:18:07;;;;;;;40.88;20.48;;;-1.30;80.20;;;;;;5056256;28;20371;-76
2020/12/22 03:20:32;;;;;;;41.55;20.40;;;-1.30;80.10;;;;;;5054308;28;20071;-76
2020/12/22 03:22:58;;;;;;;44.70;20.83;;;-1.30;80.20;;;;;;5054446;28;20109;-76
2020/12/22 03:25:25;;;;;;;42.58;20.17;;;-1.30;80.30;;;;;;5054514;28;20018;-76
2020/12/22 03:27:52;;;;;;;41.05;20.02;;;-1.30;80.30;;;;;;5055661;28;20570;-76
2020/12/22 03:30:18;;;;;;;45.28;22.42;;;-1.30;80.60;;;;;;5054537;28;20025;-76
2020/12/22 03:32:44;;;;;;;40.33;19.40;;;-1.40;80.50;;;;;;5054237;28;20104;-76
2020/12/22 03:35:11;;;;;;;48.15;23.45;;;-1.40;80.30;;;;;;5055949;28;20025;-76
2020/12/22 03:37:38;;;;;;;48.30;22.40;;;-1.30;80.90;;;;;;5055054;28;20029;-76
2020/12/22 03:40:06;;;;;;;46.92;22.15;;;-1.30;80.80;;;;;;5054134;28;20025;-76
2020/12/22 03:42:33;;;;;;;44.47;20.80;;;-1.40;80.90;;;;;;5037783;28;20056;-76
2020/12/22 03:44:59;;;;;;;39.08;19.75;;;-1.30;80.70;;;;;;5054192;28;20048;-76
2020/12/22 03:47:26;;;;;;;42.88;20.40;;;-1.30;80.50;;;;;;5055570;28;20419;-76
2020/12/22 03:49:51;;;;;;;47.97;22.25;;;-1.30;80.20;;;;;;5053916;28;20045;-76
2020/12/22 03:52:17;;;;;;;46.10;21.85;;;-1.30;80.50;;;;;;5055615;28;20029;-76
2020/12/22 03:54:43;;;;;;;46.97;22.80;;;-1.40;80.50;;;;;;5054121;28;20025;-76
2020/12/22 03:57:09;;;;;;;43.15;21.08;;;-1.40;80.80;;;;;;5055168;28;20104;-76
2020/12/22 03:59:35;;;;;;;45.42;20.92;;;-1.40;80.70;;;;;;5053886;28;20170;-76
2020/12/22 04:02:02;;;;;;;41.22;19.65;;;-1.30;80.70;;;;;;5053965;28;20040;-76
2020/12/22 04:04:28;;;;;;;45.45;20.10;;;-1.30;80.80;;;;;;5054032;28;20025;-76
2020/12/22 04:06:53;;;;;;;49.08;22.60;;;-1.30;80.70;;;;;;5055082;28;20025;-76
2020/12/22 04:09:21;;;;;;;48.20;21.92;;;-1.30;80.80;;;;;;5053649;28;20398;-76
2020/12/22 04:11:48;;;;;;;56.72;23.83;;;-1.30;80.60;;;;;;5054897;28;20104;-76
2020/12/22 04:14:14;;;;;;;53.53;24.55;;;-1.20;80.80;;;;;;5054095;28;20021;-76
2020/12/22 04:16:40;;;;;;;50.80;22.67;;;-1.30;80.70;;;;;;5055254;28;20030;-76
2020/12/22 04:19:06;;;;;;;40.50;18.38;;;-1.20;80.90;;;;;;5055258;28;20031;-76
2020/12/22 04:21:33;;;;;;;52.97;24.27;;;-1.20;80.80;;;;;;5054980;28;20032;-76
2020/12/22 04:23:58;;;;;;;54.15;23.05;;;-1.20;80.70;;;;;;5055311;28;20519;-76
2020/12/22 04:26:25;;;;;;;56.28;25.50;;;-1.20;80.90;;;;;;5054524;28;20112;-76
2020/12/22 04:28:51;;;;;;;50.08;22.77;;;-1.20;80.90;;;;;;5053208;28;20037;-76
2020/12/22 04:31:21;;;;;;;46.50;23.02;;;-1.20;80.80;;;;;;5054468;28;20443;-76
2020/12/22 04:33:52;;;;;;;49.83;20.98;;;-1.20;80.70;;;;;;5052886;28;20491;-76
2020/12/22 04:36:19;;;;;;;55.97;24.38;;;-1.20;80.80;;;;;;5054460;28;20037;-76
2020/12/22 04:38:48;;;;;;;52.90;23.73;;;-1.20;80.50;;;;;;5035707;28;20040;-76
2020/12/22 04:41:16;;;;;;;49.20;23.35;;;-1.20;80.80;;;;;;5033335;28;20029;-76
2020/12/22 04:43:43;;;;;;;46.05;22.35;;;-1.10;80.80;;;;;;5033533;28;20116;-76
2020/12/22 04:46:09;;;;;;;45.65;21.65;;;-1.10;80.50;;;;;;5034409;28;20022;-78
2020/12/22 04:48:40;;;;;;;54.35;23.20;;;-1.20;80.50;;;;;;5032086;28;20049;-77
2020/12/22 04:51:06;;;;;;;;;;;-1.10;80.60;;;;;;5050919;28;20032;-77
2020/12/22 04:53:34;;;;;;;49.85;23.13;;;-1.10;80.70;;;;;;5053000;28;20343;-77
2020/12/22 04:56:02;;;;;;;51.05;24.45;;;-1.10;80.50;;;;;;5054267;28;20033;-79
2020/12/22 04:58:29;;;;;;;48.78;22.23;;;-1.20;80.80;;;;;;5052949;28;20025;-78
2020/12/22 05:00:59;;;;;;;53.25;23.70;;;-1.20;80.80;;;;;;5035999;28;20517;-78
2020/12/22 05:03:25;;;;;;;48.50;22.17;;;-1.20;80.90;;;;;;5050479;28;20505;-78
2020/12/22 05:05:52;;;;;;;52.70;24.20;;;-1.20;80.80;;;;;;5049486;28;20037;-79
2020/12/22 05:08:18;;;;;;;58.15;25.35;;;-1.20;80.80;;;;;;5034118;28;20026;-75
2020/12/22 05:10:45;;;;;;;56.38;26.27;;;-1.20;80.90;;;;;;5031645;28;20025;-75
2020/12/22 05:13:12;;;;;;;51.70;25.25;;;-1.20;81.20;;;;;;5032255;28;20029;-76
2020/12/22 05:15:49;;;;;;;53.63;24.35;;;-1.30;81.20;;;;;;5033138;28;20460;-75
2020/12/22 05:18:15;;;;;;;51.63;23.75;;;-1.30;81.30;;;;;;5047974;28;20051;-75
2020/12/22 05:20:45;;;;;;;53.70;24.48;;;-1.30;81.30;;;;;;5052124;28;20029;-75
2020/12/22 05:23:23;;;;;;;59.00;25.38;;;-1.30;81.30;;;;;;5052267;28;20035;-76
2020/12/22 05:25:51;;;;;;;50.58;22.77;;;-1.20;81.30;;;;;;5052554;28;20028;-76
2020/12/22 05:28:19;;;;;;;54.72;25.25;;;-1.20;81.20;;;;;;5053458;28;20525;-76
2020/12/22 05:30:46;;;;;;;58.30;25.45;;;-1.20;81.30;;;;;;5052098;28;20025;-76
2020/12/22 05:33:12;;;;;;;54.03;23.38;;;-1.20;81.50;;;;;;5052338;28;20067;-76
2020/12/22 05:35:39;;;;;;;51.60;23.88;;;-1.20;81.40;;;;;;5052281;28;20124;-76
2020/12/22 05:38:07;;;;;;;53.92;23.48;;;-1.20;81.40;;;;;;5052161;28;20021;-76
2020/12/22 05:40:34;;;;;;;54.85;25.00;;;-1.20;81.40;;;;;;5052052;28;20021;-75
2020/12/22 05:43:01;;;;;;;54.72;25.15;;;-1.20;81.30;;;;;;5052508;28;20075;-75
2020/12/22 05:45:39;;;;;;;55.30;25.52;;;-1.20;81.30;;;;;;5053660;28;20025;-75
2020/12/22 05:48:06;;;;;;;49.45;23.50;;;-1.20;81.50;;;;;;5051637;28;20053;-76
2020/12/22 05:50:32;;;;;;;46.40;21.05;;;-1.20;81.60;;;;;;5052111;28;20483;-75
2020/12/22 05:53:00;;;;;;;52.78;23.23;;;-1.10;81.60;;;;;;5052619;28;20028;-76
2020/12/22 05:55:31;;;;;;;55.55;24.08;;;-1.10;81.50;;;;;;5053722;28;20021;-76
2020/12/22 05:58:09;;;;;;;;;;;-1.10;81.50;;;;;;5052628;28;20104;-76
2020/12/22 06:00:40;;;;;;;55.53;25.30;;;-1.10;81.90;;;;;;5052366;28;19933;-76
2020/12/22 06:03:16;;;;;;;;;;;-1.10;81.50;;;;;;5050698;28;20029;-76
2020/12/22 06:05:46;;;;;;;56.10;24.55;;;-1.10;81.90;;;;;;5037288;28;19908;-78
2020/12/22 06:08:14;;;;;;;51.97;23.15;;;-1.20;81.70;;;;;;5030245;28;20029;-78
2020/12/22 06:10:41;;;;;;;62.67;26.63;;;-1.10;81.70;;;;;;5033506;28;20026;-78
2020/12/22 06:13:08;;;;;;;53.05;25.50;;;-1.20;81.60;;;;;;5033365;28;20476;-78
2020/12/22 06:15:35;;;;;;;53.53;24.95;;;-1.20;81.70;;;;;;5031727;28;20025;-75
2020/12/22 06:18:02;;;;;;;58.53;25.67;;;-1.10;81.80;;;;;;5031796;28;20022;-77
2020/12/22 06:20:29;;;;;;;60.63;29.10;;;-1.10;81.70;;;;;;5032093;28;20037;-77
2020/12/22 06:23:05;;;;;;;66.03;30.20;;;-1.10;81.60;;;;;;5033298;28;20100;-77
2020/12/22 06:25:32;;;;;;;60.70;27.70;;;-1.10;81.50;;;;;;5033209;28;20030;-77
2020/12/22 06:27:58;;;;;;;56.05;25.65;;;-1.10;81.50;;;;;;5031825;28;20380;-77
2020/12/22 06:30:45;;;;;;;54.20;24.88;;;-1.10;81.60;;;;;;5032312;28;20025;-77
2020/12/22 06:33:19;;;;;;;56.58;25.33;;;-1.10;81.90;;;;;;5031756;28;20025;-77
2020/12/22 06:36:01;;;;;;;52.33;24.45;;;-1.10;81.90;;;;;;5033375;28;20075;-77
2020/12/22 06:38:45;;;;;;;53.38;24.40;;;-1.10;81.90;;;;;;5033073;28;20026;-77
2020/12/22 06:41:11;;;;;;;49.95;24.90;;;-1.00;81.80;;;;;;5033123;28;20033;-77
2020/12/22 06:43:43;;;;;;;55.08;24.30;;;-1.00;81.70;;;;;;5033187;28;20502;-77
2020/12/22 06:46:32;;;;;;;68.78;28.35;;;-1.00;81.50;;;;;;5032397;28;20167;-77
2020/12/22 06:48:58;;;;;;;55.83;26.50;;;-1.10;81.80;;;;;;5031186;28;20414;-77
2020/12/22 06:51:27;;;;;;;57.83;27.48;;;-1.00;81.80;;;;;;5032914;28;20096;-77
2020/12/22 06:53:53;;;;;;;69.90;30.45;;;-1.00;81.80;;;;;;5031762;28;20040;-77
2020/12/22 06:56:41;;;;;;;55.80;26.73;;;-1.00;81.90;;;;;;5049338;28;20414;-77
2020/12/22 06:59:11;;;;;;;61.92;29.58;;;-0.90;81.70;;;;;;5036584;28;20028;-77
2020/12/22 07:01:44;;;;;;;45.75;22.48;;;-1.00;81.30;;;;;;5036405;28;20485;-77
2020/12/22 07:04:23;;;;;;;62.10;27.88;;;-0.90;81.40;;;;;;5035534;28;20383;-77
2020/12/22 07:07:02;;;;;;;63.92;30.35;;;-0.90;81.80;;;;;;5032427;28;20025;-77
2020/12/22 07:09:32;;;;;;;63.15;28.65;;;-0.90;81.10;;;;;;5036259;28;20025;-77
2020/12/22 07:12:07;;;;;;;55.90;27.27;;;-0.90;81.20;;;;;;5035260;28;20056;-77
2020/12/22 07:14:33;;;;;;;68.97;30.65;;;-0.80;81.40;;;;;;5035307;28;20029;-77
2020/12/22 07:17:00;;;;;;;60.00;27.52;;;-0.80;81.00;;;;;;5034946;28;20529;-78
2020/12/22 07:19:28;;;;;;;65.55;30.30;;;-0.80;81.40;;;;;;5036233;28;20022;-77
2020/12/22 07:21:58;;;;;;;73.25;33.25;;;-0.80;81.30;;;;;;5036419;28;20031;-77
2020/12/22 07:24:29;;;;;;;71.37;31.90;;;-0.80;81.50;;;;;;5035936;28;20040;-77
2020/12/22 07:26:55;;;;;;;;;;;-0.80;81.30;;;;;;5035271;28;20275;-77
2020/12/22 07:29:21;;;;;;;86.47;39.55;;;-0.80;81.60;;;;;;5034962;28;20421;-77
2020/12/22 07:31:48;;;;;;;71.78;33.33;;;-0.80;81.70;;;;;;5035908;28;20060;-77
2020/12/22 07:34:14;;;;;;;65.95;29.23;;;-0.80;81.20;;;;;;5035925;28;20048;-77
2020/12/22 07:36:41;;;;;;;58.35;26.17;;;-0.70;81.10;;;;;;5036007;28;20569;-77
2020/12/22 07:39:23;;;;;;;60.97;28.80;;;-0.70;81.10;;;;;;5034612;28;20083;-77
2020/12/22 07:41:53;;;;;;;58.25;27.45;;;-0.60;80.60;;;;;;5034866;28;20018;-78
2020/12/22 07:44:20;;;;;;;49.97;26.35;;;-0.60;80.40;;;;;;5035797;28;20021;-78
2020/12/22 07:46:52;;;;;;;56.38;25.50;;;-0.60;80.30;;;;;;5035658;28;20080;-77
2020/12/22 07:49:19;;;;;;;56.92;28.83;;;-0.60;80.40;;;;;;5035449;28;20057;-77
2020/12/22 07:51:47;;;;;;;60.20;28.77;;;-0.60;80.40;;;;;;5034159;28;20029;-77
2020/12/22 07:54:15;;;;;;;60.15;29.90;;;-0.70;80.40;;;;;;5035613;28;20013;-77
2020/12/22 07:56:43;;;;;;;51.72;26.40;;;-0.70;80.60;;;;;;5034269;28;20055;-77
2020/12/22 07:59:12;;;;;;;60.00;28.58;;;-0.60;80.60;;;;;;5034115;28;20083;-78
2020/12/22 08:01:50;;;;;;;59.53;29.17;;;-0.70;80.50;;;;;;5034509;28;20029;-78
2020/12/22 08:04:19;;;;;;;57.85;28.25;;;-0.60;80.60;;;;;;5035446;28;20021;-78
2020/12/22 08:07:06;;;;;;;60.92;29.55;;;-0.60;80.50;;;;;;5035337;28;20490;-77
2020/12/22 08:09:34;;;;;;;60.33;28.23;;;-0.50;80.40;;;;;;5034248;28;20029;-77
2020/12/22 08:12:03;;;;;;;60.65;28.02;;;-0.40;80.50;;;;;;5033957;28;20025;-77
2020/12/22 08:14:31;;;;;;;58.70;27.55;;;-0.30;80.30;;;;;;5035222;28;20075;-77
2020/12/22 08:17:02;;;;;;;56.72;27.27;;;-0.20;80.10;;;;;;5035244;28;20475;-77
2020/12/22 08:19:35;;;;;;;57.40;27.80;;;-0.30;79.80;;;;;;5035140;28;20038;-78
2020/12/22 08:22:02;;;;;;;60.45;28.05;;;-0.30;79.20;;;;;;5035043;28;20116;-77
2020/12/22 08:24:29;;;;;;;58.65;27.40;;;-0.40;79.20;;;;;;5035255;28;20041;-77
2020/12/22 08:26:56;;;;;;;54.47;27.58;;;-0.40;79.60;;;;;;5034003;28;20025;-77
2020/12/22 08:29:23;;;;;;;56.28;28.35;;;-0.40;79.70;;;;;;5033548;28;20049;-77
2020/12/22 08:32:02;;;;;;;60.50;29.27;;;-0.40;79.60;;;;;;5034879;28;20024;-77
2020/12/22 08:34:29;;;;;;;57.47;26.15;;;-0.40;79.80;;;;;;5032165;28;20029;-77
2020/12/22 08:36:55;;;;;;;57.15;27.52;;;-0.30;80.00;;;;;;5033491;28;20037;-77
2020/12/22 08:39:25;;;;;;;60.25;29.10;;;-0.40;79.70;;;;;;5034439;28;20037;-77
2020/12/22 08:41:53;;;;;;;62.53;27.60;;;-0.50;80.00;;;;;;5033598;28;20029;-77
2020/12/22 08:44:20;;;;;;;52.65;26.92;;;-0.40;80.20;;;;;;5033612;28;20112;-77
2020/12/22 08:46:46;;;;;;;64.68;29.92;;;-0.40;80.30;;;;;;5034521;28;20057;-77
2020/12/22 08:49:17;;;;;;;68.47;31.33;;;-0.40;80.50;;;;;;5034258;28;20103;-77
2020/12/22 08:51:44;;;;;;;60.30;28.20;;;-0.50;80.90;;;;;;5033430;28;20025;-77
2020/12/22 08:54:11;;;;;;;64.60;29.58;;;-0.50;80.90;;;;;;5034727;28;20036;-77
2020/12/22 08:56:38;;;;;;;66.80;29.70;;;-0.50;80.40;;;;;;5034322;28;20129;-77
2020/12/22 08:59:06;;;;;;;64.65;31.35;;;-0.50;80.80;;;;;;5034366;28;20025;-77
2020/12/22 09:01:39;;;;;;;64.97;30.48;;;-0.50;81.20;;;;;;5032902;28;20025;-77
2020/12/22 09:04:05;;;;;;;64.20;30.35;;;-0.60;81.40;;;;;;5033012;28;20032;-77
2020/12/22 09:06:40;;;;;;;71.95;31.55;;;-0.50;81.40;;;;;;5032937;28;20033;-77
2020/12/22 09:09:30;;;;;;;62.20;29.38;;;-0.50;81.40;;;;;;5032859;28;20036;-77
2020/12/22 09:12:27;;;;;;;63.53;29.33;;;-0.50;81.30;;;;;;5033429;28;20087;-77
2020/12/22 09:14:58;;;;;;;63.70;29.05;;;-0.50;81.50;;;;;;5049226;28;20040;-77
2020/12/22 09:17:29;;;;;;;67.05;33.00;;;-0.40;81.40;;;;;;5032849;28;20029;-77
2020/12/22 09:19:55;;;;;;;;;;;-0.50;81.40;;;;;;5034022;28;20022;-77
2020/12/22 09:22:31;;;;;;;49.45;24.05;;;-0.50;81.10;;;;;;5049248;28;19909;-77
2020/12/22 09:25:01;;;;;;;54.17;25.67;;;-0.50;81.10;;;;;;5032914;28;20033;-77
2020/12/22 09:27:32;;;;;;;51.90;26.52;;;-0.40;81.20;;;;;;5049586;28;20053;-77
2020/12/22 09:30:01;;;;;;;61.53;30.30;;;-0.40;81.10;;;;;;5034157;28;20032;-77
2020/12/22 09:32:27;;;;;;;55.05;33.70;;;-0.40;80.90;;;;;;5032526;28;20021;-76
2020/12/22 09:34:56;;;;;;;59.25;32.58;;;-0.30;80.80;;;;;;5034069;28;20030;-77
2020/12/22 09:37:23;;;;;;;48.20;27.38;;;-0.30;80.70;;;;;;5033769;28;20021;-77
2020/12/22 09:39:50;;;;;;;51.30;27.42;;;-0.30;80.80;;;;;;5032698;28;20472;-77
2020/12/22 09:42:17;;;;;;;51.03;27.15;;;-0.20;80.60;;;;;;5032745;28;20021;-76
2020/12/22 09:44:44;;;;;;;60.92;30.02;;;-0.20;80.40;;;;;;5016002;28;20116;-77
2020/12/22 09:47:10;;;;;;;50.08;27.52;;;-0.20;80.30;;;;;;5033660;28;20030;-77
2020/12/22 09:49:36;;;;;;;53.83;29.55;;;-0.10;80.40;;;;;;5033314;28;20402;-77
2020/12/22 09:52:03;;;;;;;56.50;29.67;;;-0.10;80.30;;;;;;5032301;28;20025;-76
2020/12/22 09:54:29;;;;;;;54.72;28.13;;;-0.10;80.00;;;;;;5032189;28;20017;-77
2020/12/22 09:56:55;;;;;;;45.92;25.17;;;-0.10;79.90;;;;;;5033630;28;20078;-77
2020/12/22 09:59:21;;;;;;;47.63;24.90;;;-0.10;80.10;;;;;;5032563;28;20084;-77
2020/12/22 10:01:48;;;;;;;50.97;26.48;;;-0.10;79.90;;;;;;5032419;28;20415;-77
2020/12/22 10:04:15;;;;;;;50.75;27.13;;;-0.10;79.90;;;;;;5033828;28;20053;-77
2020/12/22 10:06:43;;;;;;;47.67;25.30;;;-0.10;80.50;;;;;;5033644;28;20048;-77
2020/12/22 10:09:10;;;;;;;49.35;25.70;;;-0.10;79.80;;;;;;5033535;28;20048;-77
2020/12/22 10:11:36;;;;;;;45.33;25.73;;;-0.10;80.10;;;;;;5032073;28;20028;-77
2020/12/22 10:14:04;;;;;;;49.90;27.73;;;-0.10;79.80;;;;;;5033788;28;20459;-77
2020/12/22 10:16:30;;;;;;;49.92;25.90;;;-0.20;80.00;;;;;;5033258;28;20022;-77
2020/12/22 10:18:56;;;;;;;45.33;24.70;;;-0.20;80.20;;;;;;5033438;28;20025;-77
2020/12/22 10:21:22;;;;;;;53.38;28.05;;;-0.10;80.20;;;;;;5032104;28;20037;-77
2020/12/22 10:23:51;;;;;;;52.90;26.90;;;-0.20;80.10;;;;;;5048534;28;20364;-77
2020/12/22 10:26:20;;;;;;;44.97;25.05;;;-0.20;80.20;;;;;;5032128;28;20025;-77
2020/12/22 10:28:47;;;;;;;49.28;26.38;;;-0.20;80.30;;;;;;5033493;28;20036;-77
2020/12/22 10:31:15;;;;;;;50.53;28.38;;;-0.20;80.30;;;;;;5034550;28;20030;-77
2020/12/22 10:33:42;;;;;;;48.22;27.00;;;-0.30;80.10;;;;;;5037038;28;20046;-77
2020/12/22 10:36:11;;;;;;;44.55;24.98;;;-0.30;80.30;;;;;;5035690;28;20028;-77
2020/12/22 10:38:37;;;;;;;37.75;21.30;;;-0.20;80.50;;;;;;5036879;28;20107;-77
2020/12/22 10:41:03;;;;;;;42.67;24.45;;;-0.20;80.20;;;;;;5035538;28;20064;-77
2020/12/22 10:43:29;;;;;;;45.88;25.40;;;-0.30;79.90;;;;;;5035947;28;20480;-77
2020/12/22 10:45:59;;;;;;;42.85;25.02;;;-0.30;80.10;;;;;;5035210;28;20476;-77
2020/12/22 10:48:26;;;;;;;41.78;23.95;;;-0.30;80.30;;;;;;5035378;28;20523;-77
2020/12/22 10:50:52;;;;;;;39.90;23.02;;;-0.30;80.20;;;;;;5052183;28;20021;-77
2020/12/22 10:53:18;;;;;;;42.72;23.08;;;-0.30;80.00;;;;;;5035397;28;20034;-77
2020/12/22 10:55:43;;;;;;;35.85;20.85;;;-0.20;80.40;;;;;;5037335;28;20028;-77
2020/12/22 10:58:09;;;;;;;37.10;21.73;;;-0.30;80.10;;;;;;5035669;28;20030;-77
2020/12/22 11:00:36;;;;;;;43.40;23.67;;;-0.30;80.20;;;;;;5035006;28;20029;-77
2020/12/22 11:03:06;;;;;;;37.28;21.48;;;-0.20;80.20;;;;;;5035180;28;20021;-77
2020/12/22 11:08:18;;;;;;;45.35;25.42;;;-0.10;80.10;;;;;;5035489;28;20045;-77
2020/12/22 11:10:44;;;;;;;40.60;22.17;;;-0.20;80.00;;;;;;5036256;28;20101;-77
2020/12/22 11:13:09;;;;;;;42.20;24.52;;;-0.20;80.20;;;;;;5042417;28;20104;-77
2020/12/22 11:15:35;;;;;;;45.22;23.60;;;-0.20;79.80;;;;;;5054747;28;20456;-77
2020/12/22 11:18:01;;;;;;;39.70;21.52;;;-0.20;80.00;;;;;;5055786;28;20021;-77
2020/12/22 11:20:27;;;;;;;40.38;21.50;;;-0.20;80.00;;;;;;5054219;28;20029;-77
2020/12/22 11:22:53;;;;;;;37.25;21.00;;;-0.10;79.70;;;;;;5054836;28;20021;-78
2020/12/22 11:25:19;;;;;;;45.08;25.55;;;-0.10;79.60;;;;;;5054627;28;20029;-77
2020/12/22 11:27:45;;;;;;;37.15;21.67;;;-0.10;79.50;;;;;;5055024;28;20025;-77
2020/12/22 11:30:11;;;;;;;43.45;23.95;;;0.00;79.80;;;;;;5054308;28;20033;-76
2020/12/22 11:32:37;;;;;;;41.58;24.05;;;-0.10;79.40;;;;;;5056235;28;20021;-76
2020/12/22 11:35:07;;;;;;;46.90;25.73;;;-0.10;79.70;;;;;;5055260;28;20036;-76
2020/12/22 11:37:34;;;;;;;48.22;25.25;;;0.00;79.80;;;;;;5055222;28;20390;-76
2020/12/22 11:40:00;;;;;;;35.42;21.05;;;-0.10;79.80;;;;;;5054241;28;20060;-76
2020/12/22 11:42:26;;;;;;;39.80;21.60;;;-0.10;79.70;;;;;;5054252;28;20054;-76
2020/12/22 11:44:52;;;;;;;41.45;24.15;;;-0.10;79.60;;;;;;5055829;28;20104;-75
2020/12/22 11:47:19;;;;;;;39.63;22.60;;;-0.10;79.80;;;;;;5053739;28;20033;-76
2020/12/22 11:49:46;;;;;;;50.55;27.30;;;-0.10;79.60;;;;;;5053728;28;20064;-76
2020/12/22 11:52:13;;;;;;;42.45;24.20;;;-0.10;79.70;;;;;;5054108;28;20028;-76
2020/12/22 11:54:39;;;;;;;43.80;23.42;;;-0.10;79.80;;;;;;5055401;28;20024;-76
2020/12/22 11:57:05;;;;;;;39.38;22.98;;;-0.10;79.80;;;;;;5055274;28;20021;-76
2020/12/22 11:59:33;;;;;;;40.65;24.52;;;-0.10;79.80;;;;;;5054559;28;20044;-76
2020/12/22 12:02:06;;;;;;;51.22;27.23;;;-0.20;79.80;;;;;;5054367;28;20474;-76
2020/12/22 12:04:32;;;;;;;46.00;26.38;;;-0.10;80.00;;;;;;5054325;28;20036;-76
2020/12/22 12:06:58;;;;;;;43.65;25.25;;;-0.20;80.00;;;;;;5055183;28;20028;-76
2020/12/22 12:09:25;;;;;;;42.80;24.70;;;-0.30;79.80;;;;;;5054758;28;20045;-76
2020/12/22 12:11:51;;;;;;;31.05;19.13;;;-0.20;80.10;;;;;;5053905;28;20036;-76
2020/12/22 12:14:18;;;;;;;34.38;20.10;;;-0.20;80.00;;;;;;5053938;28;20025;-76
2020/12/22 12:16:48;;;;;;;33.85;19.25;;;-0.20;79.80;;;;;;5054099;28;20025;-76
2020/12/22 12:19:18;;;;;;;34.13;20.42;;;-0.10;79.70;;;;;;5054888;28;20483;-76
2020/12/22 12:21:44;;;;;;;36.92;20.95;;;-0.20;79.70;;;;;;5053740;28;20068;-76
2020/12/22 12:24:09;;;;;;;42.80;23.92;;;-0.20;79.70;;;;;;5053780;28;20467;-76
2020/12/22 12:26:37;;;;;;;42.97;25.50;;;-0.20;79.80;;;;;;5054650;28;20079;-76
2020/12/22 12:29:04;;;;;;;51.70;26.88;;;-0.20;79.90;;;;;;5053856;28;20025;-77
2020/12/22 12:31:30;;;;;;;38.05;22.73;;;-0.30;79.90;;;;;;5053707;28;20044;-82
2020/12/22 12:34:00;;;;;;;35.53;21.70;;;-0.30;80.00;;;;;;5053349;28;20021;-78